PGRO/ROP METAR and TAF weather

Enter ICAO airport designator
Station Type Date Time Source
PGRO METAR 2019/12/06 01:50 UTC NOAA

PGRO 060150Z 08014KT 7SM SCT015 29/23 A2986


Station Type Date Time Source
PGRO Decoded METAR 2019/12/06 01:50 UTC NOAA

Rota Island, N. Mariana Is, Rota International Airport, GU, United States (PGRO) 14-11N 145-15E
Dec 05, 2019 - 08:50 PM EST / 2019.12.06 0150 UTC
Wind: from the E (080 degrees) at 16 MPH (14 KT):0
Visibility: 7 mile(s):0
Sky conditions: partly cloudy
Temperature: 84 F (29 C)
Dew Point: 73 F (23 C)
Relative Humidity: 70%
Pressure (altimeter): 29.86 in. Hg (1011 hPa)
ob: PGRO 060150Z 08014KT 7SM SCT015 29/23 A2986
cycle: 2

Station Type Date Time Source
PGRO TAF 2019/12/05 21:06 UTC NOAA

TAF PGRO 052105Z 0521/0618 08010KT P6SM VCSH FEW015 BKN070
FM052300 08015KT P6SM VCSH SCT020 BKN050
FM060800 08008KT P6SM VCSH SCT020 SCT050

Example: see airport list